Time;durP1;ratioP1;P1;durP2;ratioP2;P2;SDS_P1;SDS_P2;PMS_P1;PMS_P2;Temp;Humidity;BMP_temperature;BMP_pressure;BME280_temperature;BME280_humidity;BME280_pressure;Samples;Min_cycle;Max_cycle;Signal;HPM_P1;HPM_P2
2021/04/21 00:00:51;;;;;;;5.90;3.10;;;17.30;55.40;;;;;;5032774;28;20394;-67
2021/04/21 00:03:18;;;;;;;6.53;3.40;;;17.40;55.30;;;;;;5032023;28;20034;-67
2021/04/21 00:05:44;;;;;;;8.15;3.30;;;17.30;55.20;;;;;;5031989;28;20514;-67
2021/04/21 00:08:10;;;;;;;5.60;2.95;;;17.40;55.20;;;;;;5031307;28;20111;-67
2021/04/21 00:10:36;;;;;;;7.63;3.35;;;17.30;55.20;;;;;;5013231;28;20475;-67
2021/04/21 00:13:02;;;;;;;6.28;3.05;;;17.30;55.20;;;;;;5020916;28;20032;-66
2021/04/21 00:15:28;;;;;;;6.22;2.95;;;17.30;55.40;;;;;;5031726;28;20022;-67
2021/04/21 00:17:59;;;;;;;6.32;3.00;;;17.30;55.40;;;;;;5032129;28;20033;-67
2021/04/21 00:20:25;;;;;;;6.70;2.85;;;17.30;55.50;;;;;;5031581;28;20075;-67
2021/04/21 00:22:55;;;;;;;6.22;3.03;;;17.30;55.50;;;;;;5032119;28;20447;-66
2021/04/21 00:25:22;;;;;;;6.07;3.03;;;17.30;55.60;;;;;;5031944;28;20060;-67
2021/04/21 00:27:51;;;;;;;5.38;3.00;;;17.30;55.50;;;;;;5032203;28;20025;-67
2021/04/21 00:30:19;;;;;;;5.93;3.00;;;17.20;55.50;;;;;;5032411;28;20386;-67
2021/04/21 00:32:47;;;;;;;6.80;3.10;;;17.20;55.60;;;;;;5031494;28;20075;-67
2021/04/21 00:35:18;;;;;;;5.75;2.97;;;17.20;55.60;;;;;;5031717;28;20033;-67
2021/04/21 00:37:47;;;;;;;5.77;3.00;;;17.20;55.60;;;;;;5030767;28;20208;-67
2021/04/21 00:40:17;;;;;;;6.07;3.00;;;17.20;55.70;;;;;;5030684;28;20064;-67
2021/04/21 00:43:02;;;;;;;6.33;3.30;;;17.20;55.80;;;;;;5011036;28;20061;-67
2021/04/21 00:45:40;;;;;;;6.43;3.28;;;17.20;55.80;;;;;;5012430;28;20034;-67
2021/04/21 00:48:25;;;;;;;5.65;3.00;;;17.10;55.60;;;;;;5028893;28;20029;-67
2021/04/21 00:51:32;;;;;;;5.55;2.85;;;17.10;55.60;;;;;;5030827;28;20574;-67
2021/04/21 00:54:09;;;;;;;7.18;3.10;;;17.10;55.70;;;;;;5020227;28;20083;-68
2021/04/21 00:57:08;;;;;;;6.38;2.90;;;17.10;55.60;;;;;;5030393;28;20021;-66
2021/04/21 00:59:42;;;;;;;6.30;3.15;;;17.10;55.70;;;;;;5031687;28;20029;-66
2021/04/21 01:02:11;;;;;;;6.30;3.10;;;17.10;55.80;;;;;;5030698;28;20034;-67
2021/04/21 01:04:42;;;;;;;6.75;3.17;;;17.10;56.00;;;;;;5031192;28;20033;-67
2021/04/21 01:07:10;;;;;;;7.68;3.75;;;17.10;55.90;;;;;;5030352;28;20033;-67
2021/04/21 01:09:39;;;;;;;6.72;3.20;;;17.10;55.90;;;;;;5029767;28;20155;-66
2021/04/21 01:12:09;;;;;;;6.63;3.10;;;17.00;56.00;;;;;;5027455;28;20033;-67
2021/04/21 01:14:39;;;;;;;6.20;3.15;;;17.00;55.90;;;;;;5029284;28;20083;-67
2021/04/21 01:17:08;;;;;;;4.65;2.85;;;17.00;55.80;;;;;;5029863;28;20029;-67
2021/04/21 01:20:02;;;;;;;6.20;2.85;;;17.00;55.90;;;;;;5031245;28;20025;-67
2021/04/21 01:22:42;;;;;;;5.75;3.03;;;17.00;55.80;;;;;;5029487;28;20168;-67
2021/04/21 01:25:08;;;;;;;8.35;3.40;;;17.00;55.70;;;;;;5030923;28;20088;-68
2021/04/21 01:27:50;;;;;;;6.53;3.30;;;17.00;55.90;;;;;;5031427;28;20499;-68
2021/04/21 01:30:23;;;;;;;6.63;3.15;;;17.00;55.90;;;;;;5029625;28;20030;-67
2021/04/21 01:32:52;;;;;;;6.10;3.30;;;17.00;55.80;;;;;;5028476;28;20040;-67
2021/04/21 01:35:20;;;;;;;5.65;3.17;;;17.00;55.90;;;;;;5029090;28;20029;-67
2021/04/21 01:37:52;;;;;;;5.47;3.33;;;17.00;55.80;;;;;;5029038;28;20108;-67
2021/04/21 01:40:30;;;;;;;7.13;3.20;;;16.90;55.90;;;;;;5031282;28;20160;-67
2021/04/21 01:43:02;;;;;;;8.00;3.10;;;16.90;55.90;;;;;;5030579;28;20041;-66
2021/04/21 01:45:29;;;;;;;5.57;2.92;;;16.90;55.90;;;;;;5031111;28;20021;-68
2021/04/21 01:48:03;;;;;;;6.63;3.40;;;16.90;55.90;;;;;;5028430;28;20071;-67
2021/04/21 01:50:29;;;;;;;5.28;2.80;;;16.90;56.10;;;;;;5029508;28;20513;-67
2021/04/21 01:53:12;;;;;;;6.18;3.80;;;16.90;56.10;;;;;;5030896;28;20036;-67
2021/04/21 01:55:51;;;;;;;7.18;3.45;;;16.90;56.10;;;;;;5030851;28;20430;-67
2021/04/21 01:58:30;;;;;;;5.85;3.13;;;16.90;56.10;;;;;;5029744;28;20109;-67
2021/04/21 02:01:19;;;;;;;6.65;3.47;;;16.90;56.10;;;;;;5030649;28;20033;-67
2021/04/21 02:03:50;;;;;;;5.97;3.50;;;16.80;56.00;;;;;;5030109;28;20075;-66
2021/04/21 02:06:36;;;;;;;7.00;3.40;;;16.80;56.00;;;;;;5030913;28;20057;-67
2021/04/21 02:09:10;;;;;;;5.85;3.53;;;16.90;56.10;;;;;;5030967;28;20471;-66
2021/04/21 02:11:38;;;;;;;5.60;3.13;;;16.80;56.00;;;;;;5030249;28;20087;-67
2021/04/21 02:14:13;;;;;;;5.90;3.28;;;16.80;56.00;;;;;;5039268;23;20045;-66
2021/04/21 02:16:56;;;;;;;5.90;3.10;;;16.80;56.10;;;;;;4998450;28;20395;-67
2021/04/21 02:19:37;;;;;;;5.90;3.20;;;16.80;56.20;;;;;;4989957;28;20034;-64
2021/04/21 02:22:46;;;;;;;6.15;3.45;;;16.70;56.30;;;;;;5009493;28;20033;-64
2021/04/21 02:25:19;;;;;;;6.18;3.42;;;16.80;56.20;;;;;;5010490;28;20590;-65
2021/04/21 02:28:04;;;;;;;7.70;3.22;;;16.80;56.30;;;;;;5008723;28;20026;-64
2021/04/21 02:30:55;;;;;;;6.05;3.63;;;16.80;56.40;;;;;;5010970;28;20053;-62
2021/04/21 02:33:37;;;;;;;5.38;3.38;;;16.70;56.40;;;;;;4996955;28;20144;-66
2021/04/21 02:36:08;;;;;;;7.28;3.80;;;16.70;56.40;;;;;;5008759;28;20037;-65
2021/04/21 02:38:53;;;;;;;6.85;3.40;;;16.80;56.30;;;;;;5009675;28;20029;-64
2021/04/21 02:41:28;;;;;;;5.90;3.10;;;16.70;56.40;;;;;;5008639;28;20099;-66
2021/04/21 02:44:27;;;;;;;7.55;3.80;;;16.70;56.40;;;;;;5020068;28;20034;-65
2021/04/21 02:47:05;;;;;;;9.30;3.75;;;16.70;56.50;;;;;;5004843;28;20039;-66
2021/04/21 02:49:48;;;;;;;6.18;3.58;;;16.70;56.50;;;;;;5002668;28;20033;-66
2021/04/21 02:52:36;;;;;;;5.72;3.20;;;16.60;56.50;;;;;;5010789;28;20026;-66
2021/04/21 02:55:05;;;;;;;6.88;3.50;;;16.70;56.60;;;;;;5013808;28;20357;-66
2021/04/21 02:57:39;;;;;;;6.60;3.25;;;16.60;56.70;;;;;;5014563;28;20032;-66
2021/04/21 03:00:12;;;;;;;6.07;3.45;;;16.60;56.70;;;;;;5014267;28;20014;-66
2021/04/21 03:02:53;;;;;;;6.55;3.75;;;16.60;56.60;;;;;;5014078;28;20084;-66
2021/04/21 03:05:23;;;;;;;5.50;3.33;;;16.60;56.70;;;;;;4995052;28;20022;-66
2021/04/21 03:08:09;;;;;;;7.47;3.92;;;16.60;56.60;;;;;;5010079;28;20022;-66
2021/04/21 03:11:10;;;;;;;6.40;3.42;;;16.60;56.70;;;;;;5013996;28;20088;-66
2021/04/21 03:13:50;;;;;;;7.93;3.42;;;16.60;56.70;;;;;;4987227;28;20038;-66
2021/04/21 03:16:19;;;;;;;6.60;3.60;;;16.60;56.60;;;;;;5013141;28;20079;-67
2021/04/21 03:18:48;;;;;;;7.15;3.78;;;16.60;56.60;;;;;;5011793;28;20467;-66
2021/04/21 03:21:21;;;;;;;6.95;3.55;;;16.60;57.20;;;;;;5013932;28;20030;-65
2021/04/21 03:23:50;;;;;;;6.20;3.58;;;16.60;56.60;;;;;;5005709;28;20107;-66
2021/04/21 03:26:19;;;;;;;7.90;3.78;;;16.50;56.80;;;;;;4997284;28;20033;-65
2021/04/21 03:28:48;;;;;;;7.78;3.72;;;16.50;57.00;;;;;;5012666;28;20125;-66
2021/04/21 03:31:16;;;;;;;5.97;3.70;;;16.50;56.90;;;;;;5014143;28;20109;-66
2021/04/21 03:33:46;;;;;;;6.60;3.72;;;16.60;56.80;;;;;;5012251;28;20026;-67
2021/04/21 03:36:15;;;;;;;7.43;3.70;;;16.50;56.70;;;;;;5012976;28;20022;-67
2021/04/21 03:38:43;;;;;;;7.47;4.03;;;16.60;56.80;;;;;;5013435;28;20029;-66
2021/04/21 03:41:08;;;;;;;6.25;3.50;;;16.50;56.90;;;;;;5012205;28;20026;-66
2021/04/21 03:43:35;;;;;;;6.07;3.78;;;16.50;57.00;;;;;;5013243;28;20088;-67
2021/04/21 03:46:01;;;;;;;7.53;3.58;;;16.50;57.00;;;;;;5013610;28;20065;-66
2021/04/21 03:48:27;;;;;;;6.28;3.88;;;16.50;56.90;;;;;;5006723;28;21746;-67
2021/04/21 03:50:54;;;;;;;6.25;3.72;;;16.50;56.90;;;;;;5013437;28;20064;-67
2021/04/21 03:53:25;;;;;;;6.00;3.63;;;16.40;57.10;;;;;;5013368;28;20013;-64
2021/04/21 03:55:55;;;;;;;8.70;4.28;;;16.50;57.00;;;;;;5013274;28;20034;-66
2021/04/21 03:58:23;;;;;;;6.22;3.80;;;16.40;57.00;;;;;;5011271;28;20025;-65
2021/04/21 04:00:56;;;;;;;6.82;4.07;;;16.40;57.10;;;;;;4999204;28;20030;-66
2021/04/21 04:03:26;;;;;;;6.45;3.80;;;16.50;57.00;;;;;;5008886;28;20029;-65
2021/04/21 04:06:09;;;;;;;6.30;3.90;;;16.60;56.90;;;;;;5005115;28;20034;-65
2021/04/21 04:08:43;;;;;;;7.00;4.00;;;16.60;56.80;;;;;;4993059;28;20081;-66
2021/04/21 04:11:13;;;;;;;6.10;3.67;;;16.60;56.70;;;;;;5012805;28;20475;-66
2021/04/21 04:13:46;;;;;;;6.15;3.95;;;16.50;56.70;;;;;;5012415;28;20026;-66
2021/04/21 04:16:13;;;;;;;6.45;3.97;;;16.50;56.90;;;;;;5011963;28;20026;-64
2021/04/21 04:18:40;;;;;;;6.95;3.88;;;16.50;56.80;;;;;;5012150;28;20068;-67
2021/04/21 04:21:08;;;;;;;6.95;3.58;;;16.50;56.90;;;;;;5013446;28;20030;-67
2021/04/21 04:23:41;;;;;;;11.80;4.03;;;16.40;56.80;;;;;;4999564;28;20412;-66
2021/04/21 04:26:09;;;;;;;6.18;3.70;;;16.40;56.90;;;;;;4992488;28;20506;-67
2021/04/21 04:28:35;;;;;;;6.28;3.90;;;16.40;56.80;;;;;;4993430;28;20480;-65
2021/04/21 04:31:02;;;;;;;6.45;3.95;;;16.40;56.90;;;;;;4995106;28;20053;-66
2021/04/21 04:33:30;;;;;;;6.38;3.90;;;16.40;56.90;;;;;;5011271;28;20100;-66
2021/04/21 04:35:56;;;;;;;6.47;3.83;;;16.50;56.80;;;;;;5011475;28;20033;-67
2021/04/21 04:38:22;;;;;;;6.45;3.72;;;16.50;56.70;;;;;;5011044;28;20030;-67
2021/04/21 04:40:50;;;;;;;6.43;4.05;;;16.50;56.70;;;;;;5007932;28;20029;-67
2021/04/21 04:43:17;;;;;;;7.03;3.75;;;16.50;56.70;;;;;;5002922;28;20030;-65
2021/04/21 04:45:51;;;;;;;7.88;4.50;;;16.60;56.70;;;;;;5005761;28;20030;-65
2021/04/21 04:48:25;;;;;;;7.22;4.53;;;16.60;56.40;;;;;;5005985;28;20065;-65
2021/04/21 04:50:52;;;;;;;8.85;4.45;;;16.60;56.30;;;;;;5005722;28;20376;-66
2021/04/21 04:53:18;;;;;;;7.63;4.60;;;16.60;56.40;;;;;;5002032;28;20091;-66
2021/04/21 04:55:45;;;;;;;7.93;4.43;;;16.60;56.30;;;;;;5005761;28;20514;-67
2021/04/21 04:58:13;;;;;;;7.13;4.05;;;16.60;56.40;;;;;;5006219;28;20057;-67
2021/04/21 05:00:38;;;;;;;7.90;4.53;;;16.70;56.30;;;;;;5006251;28;20026;-64
2021/04/21 05:03:27;;;;;;;6.50;3.65;;;16.80;56.10;;;;;;5004168;28;20034;-66
2021/04/21 05:05:54;;;;;;;8.82;4.07;;;16.80;55.90;;;;;;4987558;28;20041;-65
2021/04/21 05:08:25;;;;;;;8.45;4.40;;;16.90;55.70;;;;;;4988314;28;20109;-65
2021/04/21 05:11:02;;;;;;;12.07;6.03;;;17.00;56.00;;;;;;5004222;28;20097;-67
2021/04/21 05:13:49;;;;;;;12.73;5.70;;;17.00;55.70;;;;;;5005360;28;20021;-65
2021/04/21 05:16:24;;;;;;;10.98;5.43;;;17.10;55.10;;;;;;5005060;28;20942;-68
2021/04/21 05:19:27;;;;;;;19.15;6.25;;;17.20;54.90;;;;;;5006086;28;20022;-65
2021/04/21 05:22:19;;;;;;;23.65;6.07;;;17.40;55.10;;;;;;4995880;28;20038;-65
2021/04/21 05:24:56;;;;;;;18.58;5.80;;;17.50;54.80;;;;;;4996959;28;20073;-66
2021/04/21 05:28:06;;;;;;;19.85;6.28;;;17.60;55.50;;;;;;5007229;28;20037;-66
2021/04/21 05:30:53;;;;;;;21.98;5.97;;;17.90;55.50;;;;;;4997994;28;20096;-67
2021/04/21 05:33:41;;;;;;;17.40;5.57;;;17.60;54.90;;;;;;4995736;28;20018;-66
2021/04/21 05:36:44;;;;;;;33.92;6.05;;;17.90;54.80;;;;;;4988353;28;20054;-66
2021/04/21 05:39:28;;;;;;;26.77;5.82;;;18.00;54.20;;;;;;4997591;28;20578;-66
2021/04/21 05:42:12;;;;;;;17.40;5.15;;;18.30;53.60;;;;;;5003005;28;20041;-67
2021/04/21 05:45:03;;;;;;;14.18;5.55;;;18.40;53.10;;;;;;4993816;28;20035;-67
2021/04/21 05:47:47;;;;;;;23.48;5.75;;;18.50;52.50;;;;;;4986594;28;20023;-66
2021/04/21 05:50:28;;;;;;;15.93;5.75;;;18.60;52.40;;;;;;4985185;28;20515;-66
2021/04/21 05:53:40;;;;;;;14.88;5.35;;;18.70;52.30;;;;;;4984293;28;20393;-66
2021/04/21 05:56:27;;;;;;;13.60;5.97;;;18.80;52.00;;;;;;4986352;28;20614;-66
2021/04/21 05:59:18;;;;;;;14.60;4.97;;;19.00;51.70;;;;;;4985533;28;20046;-67
2021/04/21 06:01:45;;;;;;;19.90;5.15;;;19.20;51.00;;;;;;4999237;28;20065;-66
2021/04/21 06:04:11;;;;;;;13.95;6.10;;;19.30;50.80;;;;;;5001282;28;20076;-69
2021/04/21 06:06:37;;;;;;;17.98;6.10;;;19.40;49.80;;;;;;4998682;28;20050;-70
2021/04/21 06:09:07;;;;;;;16.45;5.43;;;19.60;50.00;;;;;;4984550;28;20034;-73
2021/04/21 06:11:33;;;;;;;15.05;5.38;;;19.80;49.60;;;;;;4997228;28;20120;-69
2021/04/21 06:14:02;;;;;;;11.30;5.15;;;20.00;49.30;;;;;;5003528;28;20966;-71
2021/04/21 06:16:29;;;;;;;10.45;4.75;;;20.20;48.60;;;;;;5003326;28;20030;-72
2021/04/21 06:18:57;;;;;;;10.07;5.50;;;20.30;48.30;;;;;;4991899;28;20062;-67
2021/04/21 06:21:25;;;;;;;17.08;5.18;;;20.40;47.70;;;;;;5000442;28;20061;-65
2021/04/21 06:23:55;;;;;;;11.13;5.35;;;20.50;47.00;;;;;;5012867;28;20075;-64
2021/04/21 06:26:24;;;;;;;10.97;4.63;;;20.70;47.10;;;;;;5023277;28;20029;-65
2021/04/21 06:29:07;;;;;;;16.30;7.10;;;20.90;46.40;;;;;;5027486;28;20069;-64
2021/04/21 06:31:40;;;;;;;13.05;6.70;;;21.00;46.40;;;;;;5013199;28;20030;-65
2021/04/21 06:34:08;;;;;;;15.90;7.50;;;20.90;46.00;;;;;;5009924;28;20030;-67
2021/04/21 06:36:49;;;;;;;19.50;7.43;;;20.80;46.00;;;;;;5010631;28;20045;-68
2021/04/21 06:39:17;;;;;;;;;;;20.80;46.30;;;;;;5009542;28;20093;-67
2021/04/21 06:41:44;;;;;;;16.35;7.43;;;20.70;45.70;;;;;;4993061;28;19918;-68
2021/04/21 06:44:09;;;;;;;13.35;6.90;;;20.80;45.60;;;;;;4999656;28;20450;-68
2021/04/21 06:46:35;;;;;;;14.55;6.85;;;20.90;45.60;;;;;;5007808;28;20030;-63
2021/04/21 06:49:02;;;;;;;13.40;7.47;;;21.00;45.40;;;;;;4989775;28;20138;-65
2021/04/21 06:51:33;;;;;;;15.05;7.72;;;21.00;45.00;;;;;;4988317;28;20546;-65
2021/04/21 06:54:00;;;;;;;16.00;7.63;;;21.20;44.50;;;;;;4988236;28;20026;-64
2021/04/21 06:56:28;;;;;;;15.57;7.78;;;21.20;44.30;;;;;;4999111;28;20092;-64
2021/04/21 06:58:54;;;;;;;16.67;7.97;;;21.30;43.90;;;;;;4997977;28;20113;-66
2021/04/21 07:01:28;;;;;;;14.98;6.30;;;21.50;44.00;;;;;;4993312;28;20058;-67
2021/04/21 07:04:11;;;;;;;12.70;5.93;;;21.90;44.10;;;;;;4996255;28;20491;-65
2021/04/21 07:06:38;;;;;;;15.48;5.40;;;22.20;42.90;;;;;;4999986;28;20061;-70
2021/04/21 07:09:20;;;;;;;14.15;5.30;;;22.40;42.20;;;;;;5004527;28;20534;-70
2021/04/21 07:11:56;;;;;;;10.45;4.65;;;22.50;41.90;;;;;;5004869;28;20437;-66
2021/04/21 07:14:23;;;;;;;11.30;4.70;;;22.80;41.10;;;;;;5003662;28;20080;-63
2021/04/21 07:16:56;;;;;;;19.08;5.80;;;22.90;41.20;;;;;;5003463;28;20088;-65
2021/04/21 07:19:24;;;;;;;10.82;5.07;;;23.00;41.00;;;;;;5010858;28;20029;-66
2021/04/21 07:21:50;;;;;;;12.75;5.32;;;23.00;41.20;;;;;;5022841;28;20068;-66
2021/04/21 07:24:17;;;;;;;12.20;4.20;;;23.10;41.30;;;;;;5005996;28;20021;-66
2021/04/21 07:26:47;;;;;;;12.60;4.82;;;23.10;40.90;;;;;;4997618;28;20033;-66
2021/04/21 07:29:19;;;;;;;11.07;4.55;;;23.20;40.80;;;;;;4998995;28;20034;-68
2021/04/21 07:31:45;;;;;;;10.10;4.70;;;23.30;40.90;;;;;;5000921;28;20453;-68
2021/04/21 07:34:31;;;;;;;10.23;4.72;;;23.40;40.80;;;;;;5000221;28;20062;-67
2021/04/21 07:36:57;;;;;;;10.07;4.35;;;23.60;40.30;;;;;;4995261;28;20033;-68
2021/04/21 07:39:32;;;;;;;9.27;4.63;;;23.70;40.30;;;;;;5001908;28;20036;-69
2021/04/21 07:41:57;;;;;;;9.35;4.53;;;23.80;40.10;;;;;;4997694;28;20065;-66
2021/04/21 07:44:36;;;;;;;11.93;4.55;;;23.90;40.00;;;;;;5006119;28;20038;-67
2021/04/21 07:47:08;;;;;;;10.07;5.00;;;24.00;39.40;;;;;;5004843;28;20029;-63
2021/04/21 07:50:04;;;;;;;8.68;4.15;;;24.20;39.30;;;;;;5001507;28;20492;-65
2021/04/21 07:52:32;;;;;;;8.13;4.50;;;24.20;39.20;;;;;;5005524;28;20096;-72
2021/04/21 07:55:09;;;;;;;7.82;4.53;;;24.40;38.80;;;;;;5004167;28;20022;-72
2021/04/21 07:57:35;;;;;;;9.40;4.63;;;24.40;38.40;;;;;;5010786;28;20022;-69
2021/04/21 08:00:02;;;;;;;9.63;4.40;;;24.60;38.00;;;;;;5002383;28;20391;-66
2021/04/21 08:02:33;;;;;;;12.57;5.63;;;24.60;38.00;;;;;;5005349;28;20086;-66
2021/04/21 08:05:02;;;;;;;9.75;4.40;;;24.70;38.00;;;;;;5011369;28;20026;-69
2021/04/21 08:07:38;;;;;;;7.95;4.10;;;24.80;37.70;;;;;;5002532;28;20030;-67
2021/04/21 08:10:06;;;;;;;7.05;4.18;;;24.80;38.20;;;;;;5012455;28;20026;-71
2021/04/21 08:12:35;;;;;;;8.88;4.43;;;24.90;37.80;;;;;;5018407;28;20037;-66
2021/04/21 08:15:10;;;;;;;10.40;4.30;;;25.00;37.90;;;;;;5027902;22;20152;-70
2021/04/21 08:17:58;;;;;;;10.02;4.60;;;25.10;37.80;;;;;;5007176;28;20391;-71
2021/04/21 08:20:29;;;;;;;7.70;4.10;;;25.10;37.60;;;;;;4995157;28;20029;-68
2021/04/21 08:22:56;;;;;;;8.13;4.00;;;25.30;37.40;;;;;;4993205;28;20025;-71
2021/04/21 08:25:22;;;;;;;7.97;4.30;;;25.40;37.00;;;;;;5004041;28;20602;-69
2021/04/21 08:27:48;;;;;;;7.25;3.72;;;25.40;37.20;;;;;;5012633;28;20120;-71
2021/04/21 08:30:15;;;;;;;7.72;3.50;;;25.50;37.00;;;;;;5007485;28;20034;-69
2021/04/21 08:32:41;;;;;;;8.10;3.88;;;25.60;37.00;;;;;;4999065;28;20104;-70
2021/04/21 08:35:07;;;;;;;6.53;3.75;;;25.60;36.70;;;;;;5022882;28;20574;-70
2021/04/21 08:37:33;;;;;;;7.35;3.97;;;25.70;37.00;;;;;;5012205;28;20101;-70
2021/04/21 08:39:58;;;;;;;6.35;3.70;;;25.80;36.70;;;;;;5011357;28;20110;-69
2021/04/21 08:42:25;;;;;;;7.13;3.60;;;25.90;36.50;;;;;;5011209;28;20037;-66
2021/04/21 08:44:51;;;;;;;8.10;3.50;;;26.00;36.30;;;;;;5010266;28;20578;-69
2021/04/21 08:47:17;;;;;;;10.02;4.03;;;26.10;36.20;;;;;;5006014;28;20079;-66
2021/04/21 08:49:44;;;;;;;6.70;3.40;;;26.20;35.90;;;;;;5003260;28;20026;-66
2021/04/21 08:52:18;;;;;;;8.98;3.53;;;26.30;35.90;;;;;;5010273;28;20616;-66
2021/04/21 08:54:47;;;;;;;6.80;3.67;;;26.30;35.80;;;;;;5004330;28;20031;-66
2021/04/21 08:57:14;;;;;;;7.57;3.60;;;26.30;35.60;;;;;;5005939;28;20026;-66
2021/04/21 08:59:41;;;;;;;9.40;4.20;;;26.40;35.50;;;;;;5011436;28;20037;-66
2021/04/21 09:02:07;;;;;;;6.50;3.63;;;26.30;35.50;;;;;;5009617;28;20468;-66
2021/04/21 09:04:33;;;;;;;7.30;4.00;;;26.40;35.60;;;;;;5008378;28;20491;-67
2021/04/21 09:06:58;;;;;;;6.40;3.50;;;26.50;35.70;;;;;;5008357;28;20092;-66
2021/04/21 09:09:25;;;;;;;8.10;3.65;;;26.50;35.50;;;;;;5008850;28;20419;-66
2021/04/21 09:11:51;;;;;;;13.43;4.72;;;26.60;35.30;;;;;;5010389;28;20534;-66
2021/04/21 09:14:16;;;;;;;10.52;4.03;;;26.70;34.90;;;;;;5010227;28;20072;-68
2021/04/21 09:16:42;;;;;;;7.50;3.33;;;26.70;34.50;;;;;;4999725;28;20057;-66
2021/04/21 09:19:13;;;;;;;6.63;3.47;;;26.70;34.80;;;;;;5010516;28;20105;-66
2021/04/21 09:21:39;;;;;;;8.15;3.60;;;26.70;34.80;;;;;;5012841;28;20033;-66
2021/04/21 09:24:11;;;;;;;8.68;3.42;;;26.70;34.70;;;;;;5008993;28;20038;-67
2021/04/21 09:26:37;;;;;;;7.05;3.28;;;26.70;34.70;;;;;;5010754;28;20084;-66
2021/04/21 09:29:03;;;;;;;6.50;3.30;;;26.80;34.60;;;;;;5010731;28;20026;-67
2021/04/21 09:31:31;;;;;;;8.88;3.80;;;27.00;34.50;;;;;;5010698;28;20030;-66
2021/04/21 09:34:14;;;;;;;6.43;3.22;;;27.10;34.20;;;;;;5013191;28;20021;-66
2021/04/21 09:36:45;;;;;;;6.28;3.60;;;27.20;34.20;;;;;;5008790;28;20030;-66
2021/04/21 09:39:23;;;;;;;11.70;3.47;;;27.20;34.10;;;;;;5018042;28;20049;-66
2021/04/21 09:41:50;;;;;;;9.65;3.00;;;27.00;34.20;;;;;;5028172;28;20029;-65
2021/04/21 09:44:28;;;;;;;9.50;3.15;;;26.60;34.60;;;;;;5010839;28;20030;-65
2021/04/21 09:46:54;;;;;;;7.63;3.05;;;26.40;34.90;;;;;;5012361;28;20038;-66
2021/04/21 09:49:39;;;;;;;6.68;3.08;;;26.30;35.10;;;;;;5013457;28;20026;-65
2021/04/21 09:52:11;;;;;;;6.63;2.85;;;26.50;35.20;;;;;;5011557;28;20101;-66
2021/04/21 09:54:41;;;;;;;6.93;3.83;;;26.70;34.60;;;;;;5011680;28;20052;-65
2021/04/21 09:57:30;;;;;;;7.30;3.13;;;26.50;34.90;;;;;;5030135;28;20036;-65
2021/04/21 10:00:06;;;;;;;6.63;3.28;;;25.30;36.00;;;;;;5018784;28;20137;-65
2021/04/21 10:02:37;;;;;;;8.90;3.70;;;25.00;36.90;;;;;;5011950;28;20034;-65
2021/04/21 10:05:29;;;;;;;8.90;3.60;;;24.50;37.60;;;;;;5022579;28;20029;-65
2021/04/21 10:08:24;;;;;;;6.57;3.40;;;24.10;38.10;;;;;;5029805;28;20029;-68
2021/04/21 10:11:05;;;;;;;12.85;3.78;;;23.70;38.90;;;;;;5027909;28;20021;-66
2021/04/21 10:13:40;;;;;;;;;;;23.40;39.20;;;;;;5019773;28;20396;-66
2021/04/21 10:16:07;;;;;;;8.05;3.78;;;23.50;39.30;;;;;;5012849;28;19909;-66
2021/04/21 10:18:33;;;;;;;7.55;3.90;;;23.70;39.10;;;;;;5011870;28;20116;-66
2021/04/21 10:20:58;;;;;;;9.65;3.85;;;23.90;38.80;;;;;;5008917;28;20117;-66
2021/04/21 10:23:24;;;;;;;9.85;3.33;;;23.70;38.60;;;;;;5009169;28;20096;-65
2021/04/21 10:25:50;;;;;;;9.02;3.50;;;23.60;39.10;;;;;;5008767;28;20029;-66
2021/04/21 10:28:15;;;;;;;7.32;3.08;;;23.60;39.30;;;;;;5010440;28;20112;-66
2021/04/21 10:30:41;;;;;;;8.38;3.30;;;23.50;39.30;;;;;;5002371;28;20034;-65
2021/04/21 10:33:09;;;;;;;9.88;3.40;;;23.50;39.30;;;;;;5009690;28;20018;-66
2021/04/21 10:35:34;;;;;;;8.98;3.15;;;24.30;38.40;;;;;;5008072;28;20484;-65
2021/04/21 10:38:00;;;;;;;10.02;3.20;;;25.00;37.00;;;;;;5013319;28;20026;-65
2021/04/21 10:40:30;;;;;;;9.02;3.67;;;25.10;36.70;;;;;;5010227;28;20026;-67
2021/04/21 10:43:03;;;;;;;7.55;3.17;;;24.50;37.00;;;;;;5012067;28;20038;-65
2021/04/21 10:45:30;;;;;;;9.05;3.40;;;24.00;37.90;;;;;;5025098;28;20555;-66
2021/04/21 10:47:58;;;;;;;8.07;3.33;;;24.00;38.40;;;;;;5009066;28;20026;-65
2021/04/21 10:50:48;;;;;;;8.60;3.45;;;25.50;36.60;;;;;;5003313;28;20029;-66
2021/04/21 10:53:29;;;;;;;;;;;26.30;35.30;;;;;;5007649;28;20029;-66
2021/04/21 10:55:55;;;;;;;9.65;3.28;;;26.60;34.60;;;;;;5005476;28;19913;-66
2021/04/21 10:58:20;;;;;;;8.45;3.17;;;26.40;34.60;;;;;;5007970;28;20034;-66
2021/04/21 11:00:47;;;;;;;7.88;3.38;;;26.00;34.70;;;;;;5007697;28;20375;-65
2021/04/21 11:03:28;;;;;;;6.97;2.75;;;26.00;35.20;;;;;;5009946;28;20033;-66
2021/04/21 11:06:02;;;;;;;7.35;3.00;;;25.80;35.20;;;;;;5009289;28;20487;-66
2021/04/21 11:08:30;;;;;;;7.72;3.58;;;25.70;35.70;;;;;;5010722;28;20030;-65
2021/04/21 11:11:05;;;;;;;10.07;3.55;;;25.60;35.40;;;;;;5012619;28;20032;-66
2021/04/21 11:13:39;;;;;;;8.23;3.42;;;25.70;35.50;;;;;;5015230;28;20053;-66
2021/04/21 11:16:26;;;;;;;11.77;3.63;;;26.00;35.10;;;;;;5012982;28;20025;-65
2021/04/21 11:18:52;;;;;;;7.43;3.10;;;26.20;34.70;;;;;;5012767;28;20555;-65
2021/04/21 11:21:21;;;;;;;7.07;3.20;;;26.30;34.60;;;;;;5007187;28;20114;-66
2021/04/21 11:24:03;;;;;;;9.45;3.38;;;26.30;34.60;;;;;;5012078;28;20056;-66
2021/04/21 11:26:31;;;;;;;6.60;3.35;;;26.60;34.50;;;;;;5009719;28;20021;-65
2021/04/21 11:29:10;;;;;;;8.07;3.03;;;26.70;34.10;;;;;;5013216;28;20029;-66
2021/04/21 11:31:41;;;;;;;6.88;3.05;;;26.20;34.40;;;;;;5019519;28;20032;-66
2021/04/21 11:34:13;;;;;;;5.82;3.17;;;26.40;34.40;;;;;;5012439;28;20026;-66
2021/04/21 11:37:08;;;;;;;7.18;2.80;;;26.50;34.20;;;;;;5015341;28;20029;-65
2021/04/21 11:39:47;;;;;;;9.88;3.25;;;26.40;34.90;;;;;;5008937;28;20037;-65
2021/04/21 11:42:22;;;;;;;8.48;2.78;;;26.10;34.80;;;;;;5016778;28;20026;-66
2021/04/21 11:45:00;;;;;;;7.85;3.08;;;25.80;35.40;;;;;;5013009;28;20026;-67
2021/04/21 11:47:30;;;;;;;6.47;2.90;;;25.70;35.50;;;;;;5014728;28;20088;-65
2021/04/21 11:50:06;;;;;;;8.43;2.90;;;24.60;36.70;;;;;;5030466;28;20369;-65
2021/04/21 11:52:56;;;;;;;6.95;2.92;;;24.00;37.90;;;;;;5013442;28;20026;-67
2021/04/21 11:55:23;;;;;;;5.57;2.90;;;24.60;37.60;;;;;;5013283;28;20026;-65
2021/04/21 11:58:03;;;;;;;13.50;3.75;;;24.10;37.60;;;;;;5014968;28;20034;-68
2021/04/21 12:00:42;;;;;;;16.80;4.22;;;23.20;37.50;;;;;;5017540;28;20026;-66
2021/04/21 12:03:34;;;;;;;10.32;4.05;;;22.30;39.50;;;;;;5012067;28;20041;-66
2021/04/21 12:05:59;;;;;;;12.85;3.75;;;22.40;40.20;;;;;;5014195;28;20380;-66
2021/04/21 12:08:27;;;;;;;8.02;3.30;;;22.50;40.20;;;;;;5013187;28;20079;-66
2021/04/21 12:10:54;;;;;;;8.15;3.03;;;22.50;40.80;;;;;;5011852;28;20391;-67
2021/04/21 12:13:23;;;;;;;9.27;3.42;;;22.30;40.50;;;;;;5012642;28;20022;-65
2021/04/21 12:15:52;;;;;;;8.82;3.45;;;22.10;40.70;;;;;;5013774;28;20447;-66
2021/04/21 12:18:35;;;;;;;8.15;3.10;;;22.20;40.90;;;;;;5010463;28;20041;-65
2021/04/21 12:21:22;;;;;;;10.55;3.58;;;22.20;40.80;;;;;;5002401;28;20162;-67
2021/04/21 12:24:14;;;;;;;8.27;3.33;;;22.30;40.70;;;;;;5013516;28;20496;-66
2021/04/21 12:26:45;;;;;;;7.18;3.33;;;22.20;40.70;;;;;;4991252;28;20034;-66
2021/04/21 12:29:18;;;;;;;7.63;2.95;;;22.10;40.70;;;;;;5005615;28;20558;-66
2021/04/21 12:31:44;;;;;;;7.75;3.20;;;22.10;40.60;;;;;;5013573;28;20033;-66
2021/04/21 12:34:19;;;;;;;9.85;3.17;;;22.10;40.70;;;;;;5011882;28;20022;-66
2021/04/21 12:36:47;;;;;;;7.78;3.03;;;22.10;40.80;;;;;;5012162;28;20021;-67
2021/04/21 12:39:15;;;;;;;8.15;3.13;;;22.10;40.20;;;;;;5012887;28;20040;-68
2021/04/21 12:41:44;;;;;;;10.05;3.35;;;22.00;40.30;;;;;;5013349;28;20069;-66
2021/04/21 12:44:21;;;;;;;10.43;3.42;;;22.00;40.90;;;;;;5011779;28;20100;-66
2021/04/21 12:46:50;;;;;;;12.05;3.00;;;21.90;41.30;;;;;;5013260;28;20030;-66
2021/04/21 12:49:33;;;;;;;9.77;3.17;;;21.80;42.10;;;;;;5012704;28;20057;-66
2021/04/21 12:51:59;;;;;;;8.23;3.58;;;21.70;42.10;;;;;;5012007;28;20033;-66
2021/04/21 12:54:43;;;;;;;8.45;3.15;;;21.50;42.30;;;;;;5012744;28;20069;-66
2021/04/21 12:57:17;;;;;;;8.70;3.15;;;21.40;42.50;;;;;;4992414;28;20027;-67
2021/04/21 12:59:58;;;;;;;10.50;3.60;;;21.30;42.70;;;;;;5012902;28;20038;-66
2021/04/21 13:02:47;;;;;;;11.63;3.42;;;21.30;42.70;;;;;;5013068;28;20053;-65
2021/04/21 13:05:16;;;;;;;9.68;3.67;;;21.20;42.70;;;;;;5011184;28;20065;-66
2021/04/21 13:07:42;;;;;;;9.43;3.70;;;21.10;42.80;;;;;;5012999;28;20026;-66
2021/04/21 13:10:15;;;;;;;8.05;3.60;;;21.20;43.00;;;;;;5012165;28;20442;-66
2021/04/21 13:12:42;;;;;;;8.43;3.65;;;21.30;42.60;;;;;;5009862;28;20060;-67
2021/04/21 13:15:09;;;;;;;11.23;3.53;;;21.30;42.60;;;;;;5012187;28;20061;-66
2021/04/21 13:17:56;;;;;;;9.93;3.22;;;21.30;42.60;;;;;;5008950;28;20062;-66